Time;durP1;ratioP1;P1;durP2;ratioP2;P2;SDS_P1;SDS_P2;PMS_P1;PMS_P2;Temp;Humidity;BMP_temperature;BMP_pressure;BME280_temperature;BME280_humidity;BME280_pressure;Samples;Min_cycle;Max_cycle;Signal;HPM_P1;HPM_P2
2022/03/20 00:02:20;;;;;;;14.83;9.33;;;3.50;99.90;;;;;;5068529;28;20186;-78
2022/03/20 00:04:46;;;;;;;13.40;8.77;;;3.50;99.90;;;;;;5079699;28;20380;-80
2022/03/20 00:07:11;;;;;;;15.17;9.63;;;3.50;99.90;;;;;;5079858;28;20944;-80
2022/03/20 00:09:40;;;;;;;13.57;9.27;;;3.40;99.90;;;;;;5079290;28;20659;-82
2022/03/20 00:12:06;;;;;;;12.83;8.83;;;3.40;99.90;;;;;;5070018;28;20185;-81
2022/03/20 00:14:31;;;;;;;13.77;9.33;;;3.40;99.90;;;;;;5068770;28;20210;-79
2022/03/20 00:16:57;;;;;;;14.10;9.20;;;3.40;99.90;;;;;;5067852;28;20604;-82
2022/03/20 00:19:23;;;;;;;15.60;9.10;;;3.40;99.90;;;;;;5069542;28;20192;-79
2022/03/20 00:21:49;;;;;;;12.80;9.27;;;3.50;99.90;;;;;;5068070;28;20185;-81
2022/03/20 00:24:15;;;;;;;16.30;8.77;;;3.50;99.90;;;;;;5077035;28;20209;-79
2022/03/20 00:26:42;;;;;;;13.03;8.83;;;3.50;99.90;;;;;;5078835;28;20181;-80
2022/03/20 00:29:07;;;;;;;13.63;9.03;;;3.40;99.90;;;;;;5079334;28;20571;-79
2022/03/20 00:31:34;;;;;;;14.23;9.43;;;3.40;99.90;;;;;;5077307;28;20204;-79
2022/03/20 00:34:00;;;;;;;11.83;8.53;;;3.30;99.90;;;;;;5066701;28;20746;-80
2022/03/20 00:36:25;;;;;;;12.90;8.70;;;3.30;99.90;;;;;;5078137;28;20260;-82
2022/03/20 00:38:51;;;;;;;14.33;9.43;;;3.40;99.90;;;;;;5076424;28;20197;-81
2022/03/20 00:41:17;;;;;;;13.63;8.70;;;3.30;99.90;;;;;;5076986;28;20760;-79
2022/03/20 00:43:42;;;;;;;12.20;8.10;;;3.30;99.90;;;;;;5066955;28;20193;-79
2022/03/20 00:46:09;;;;;;;15.23;8.90;;;3.30;99.90;;;;;;5079744;28;20182;-79
2022/03/20 00:48:35;;;;;;;12.90;8.20;;;3.30;99.90;;;;;;5076660;28;20437;-81
2022/03/20 00:51:03;;;;;;;14.37;9.63;;;3.30;99.90;;;;;;5077444;28;20188;-81
2022/03/20 00:53:30;;;;;;;16.63;10.53;;;3.20;99.90;;;;;;5078682;28;20208;-80
2022/03/20 00:55:56;;;;;;;17.23;9.93;;;3.20;99.90;;;;;;5063597;28;20188;-79
2022/03/20 00:58:22;;;;;;;15.07;8.67;;;3.10;99.90;;;;;;5078588;28;20222;-81
2022/03/20 01:00:48;;;;;;;13.50;8.57;;;3.10;99.90;;;;;;5086927;28;20199;-81
2022/03/20 01:03:18;;;;;;;13.90;8.77;;;3.00;99.90;;;;;;5074794;28;20216;-80
2022/03/20 01:05:44;;;;;;;14.50;8.77;;;3.00;99.90;;;;;;5079667;28;20185;-82
2022/03/20 01:08:10;;;;;;;13.10;8.57;;;2.90;99.90;;;;;;5078234;28;20332;-80
2022/03/20 01:10:36;;;;;;;13.07;8.13;;;2.80;99.90;;;;;;5076171;28;20900;-79
2022/03/20 01:13:01;;;;;;;15.10;9.07;;;2.80;99.90;;;;;;5076852;28;20201;-83
2022/03/20 01:15:27;;;;;;;15.87;8.63;;;2.70;99.90;;;;;;5075130;28;20192;-81
2022/03/20 01:17:53;;;;;;;12.20;8.67;;;2.80;99.90;;;;;;5076833;28;20205;-81
2022/03/20 01:20:19;;;;;;;13.47;8.23;;;2.70;99.90;;;;;;5076824;28;20205;-82
2022/03/20 01:22:45;;;;;;;14.53;8.90;;;2.70;99.90;;;;;;5089985;28;20211;-79
2022/03/20 01:25:12;;;;;;;13.73;8.83;;;2.70;99.90;;;;;;5093553;28;20192;-80
2022/03/20 01:27:37;;;;;;;14.00;9.07;;;2.80;99.90;;;;;;5070748;28;20813;-79
2022/03/20 01:30:04;;;;;;;14.97;8.90;;;2.70;99.90;;;;;;5069216;28;20221;-78
2022/03/20 01:32:30;;;;;;;15.60;10.47;;;2.70;99.90;;;;;;5078257;28;20210;-79
2022/03/20 01:34:56;;;;;;;16.23;9.97;;;2.70;99.90;;;;;;5080923;28;20311;-78
2022/03/20 01:37:22;;;;;;;11.67;8.63;;;2.60;99.90;;;;;;5080177;28;20200;-82
2022/03/20 01:39:48;;;;;;;12.77;8.70;;;2.50;99.90;;;;;;5069476;28;20213;-83
2022/03/20 01:42:13;;;;;;;13.87;9.10;;;2.50;99.90;;;;;;5083205;28;20190;-81
2022/03/20 01:44:39;;;;;;;14.03;9.20;;;2.40;99.90;;;;;;5069180;28;20215;-81
2022/03/20 01:47:10;;;;;;;14.13;9.40;;;2.40;99.90;;;;;;5082048;28;20249;-81
2022/03/20 01:49:35;;;;;;;13.57;8.70;;;2.40;99.90;;;;;;5079685;28;20186;-81
2022/03/20 01:52:23;;;;;;;14.37;8.87;;;2.40;99.90;;;;;;5079685;28;20178;-78
2022/03/20 01:54:49;;;;;;;15.83;8.80;;;2.40;99.90;;;;;;5069698;28;20185;-82
2022/03/20 01:57:16;;;;;;;13.30;9.10;;;2.40;99.90;;;;;;5071174;28;21080;-81
2022/03/20 01:59:43;;;;;;;13.13;9.20;;;2.40;99.90;;;;;;5069400;28;20246;-81
2022/03/20 02:02:09;;;;;;;12.83;8.73;;;2.40;99.90;;;;;;5070418;28;20187;-79
2022/03/20 02:04:36;;;;;;;15.53;10.27;;;2.40;99.90;;;;;;5085227;28;20217;-77
2022/03/20 02:07:03;;;;;;;12.50;8.80;;;2.30;99.90;;;;;;5101572;28;20208;-77
2022/03/20 02:09:29;;;;;;;14.87;9.27;;;2.20;99.90;;;;;;5080063;28;20207;-82
2022/03/20 02:11:56;;;;;;;15.87;9.30;;;2.10;99.90;;;;;;5070637;28;21247;-77
2022/03/20 02:14:22;;;;;;;15.57;9.27;;;2.10;99.90;;;;;;5069024;28;20750;-79
2022/03/20 02:16:47;;;;;;;14.80;9.20;;;2.20;99.90;;;;;;5068918;28;20190;-80
2022/03/20 02:19:14;;;;;;;11.83;8.57;;;2.10;99.90;;;;;;5078768;28;20207;-80
2022/03/20 02:21:42;;;;;;;15.33;9.67;;;2.00;99.90;;;;;;5080738;28;20383;-78
2022/03/20 02:24:53;;;;;;;15.23;9.57;;;1.90;99.90;;;;;;5077796;28;20273;-80
2022/03/20 02:27:22;;;;;;;14.83;8.87;;;1.90;99.90;;;;;;5076975;28;20220;-80
2022/03/20 02:29:51;;;;;;;12.60;9.93;;;2.00;99.90;;;;;;5067927;28;20180;-77
2022/03/20 02:32:21;;;;;;;13.23;9.10;;;1.90;99.90;;;;;;5059932;28;20360;-79
2022/03/20 02:34:48;;;;;;;19.13;9.17;;;1.80;99.90;;;;;;5079224;28;20189;-80
2022/03/20 02:37:16;;;;;;;12.67;8.30;;;1.80;99.90;;;;;;5069069;28;20196;-81
2022/03/20 02:39:43;;;;;;;13.40;8.70;;;1.80;99.90;;;;;;5066891;28;20192;-80
2022/03/20 02:42:09;;;;;;;12.47;8.80;;;1.80;99.90;;;;;;5069079;28;20200;-80
2022/03/20 02:45:00;;;;;;;18.13;9.77;;;1.80;99.90;;;;;;5067237;28;20208;-82
2022/03/20 02:47:38;;;;;;;14.27;8.73;;;1.70;99.90;;;;;;5069564;28;20200;-80
2022/03/20 02:50:27;;;;;;;15.80;8.40;;;1.80;99.90;;;;;;5076689;28;20690;-79
2022/03/20 02:52:56;;;;;;;13.13;8.23;;;1.80;99.90;;;;;;5066323;28;20236;-80
2022/03/20 02:55:25;;;;;;;13.30;9.03;;;1.80;99.90;;;;;;5066421;28;20196;-78
2022/03/20 02:57:52;;;;;;;13.87;8.40;;;1.80;99.90;;;;;;5066731;28;20229;-78
2022/03/20 03:00:21;;;;;;;14.83;8.90;;;1.80;99.90;;;;;;5067872;28;20185;-83
2022/03/20 03:02:48;;;;;;;14.73;8.60;;;1.80;99.90;;;;;;5083267;28;20627;-79
2022/03/20 03:05:17;;;;;;;13.73;8.60;;;1.70;99.90;;;;;;5072442;28;20211;-80
2022/03/20 03:13:16;;;;;;;15.63;9.03;;;1.70;99.90;;;;;;5083382;28;20220;-79
2022/03/20 03:15:42;;;;;;;14.30;8.93;;;1.60;99.90;;;;;;5061677;28;20242;-83
2022/03/20 03:18:08;;;;;;;11.67;7.77;;;1.60;99.90;;;;;;5084221;28;20268;-83
2022/03/20 03:20:34;;;;;;;14.43;8.80;;;1.50;99.90;;;;;;5080342;28;20653;-80
2022/03/20 03:22:59;;;;;;;14.13;8.67;;;1.50;99.90;;;;;;5081167;28;20209;-81
2022/03/20 03:25:25;;;;;;;15.07;9.17;;;1.50;99.90;;;;;;5069979;28;20253;-81
2022/03/20 03:27:52;;;;;;;10.93;8.43;;;1.50;99.90;;;;;;5070007;28;21182;-81
2022/03/20 03:30:18;;;;;;;13.37;9.00;;;1.50;99.90;;;;;;5070419;28;20178;-79
2022/03/20 03:32:44;;;;;;;12.97;8.43;;;1.40;99.90;;;;;;5070168;28;20197;-83
2022/03/20 03:37:56;;;;;;;13.97;8.80;;;1.50;99.90;;;;;;5083552;28;20234;-79
2022/03/20 03:40:22;;;;;;;14.53;8.23;;;1.50;99.90;;;;;;5081148;28;20185;-76
2022/03/20 03:42:48;;;;;;;15.07;8.87;;;1.40;99.90;;;;;;5069702;28;20246;-79
2022/03/20 03:45:13;;;;;;;12.67;8.57;;;1.40;99.90;;;;;;5072002;28;20234;-80
2022/03/20 03:47:40;;;;;;;14.17;8.70;;;1.30;99.90;;;;;;5071928;28;20200;-80
2022/03/20 03:50:09;;;;;;;15.57;8.87;;;1.40;99.90;;;;;;5080043;28;20275;-79
2022/03/20 03:52:38;;;;;;;13.63;8.60;;;1.40;99.90;;;;;;5078212;28;20189;-81
2022/03/20 03:55:05;;;;;;;17.57;9.90;;;1.40;99.90;;;;;;5070024;28;20182;-82
2022/03/20 03:57:31;;;;;;;13.17;8.33;;;1.30;99.90;;;;;;5071514;28;20192;-82
2022/03/20 03:59:56;;;;;;;15.37;8.83;;;1.30;99.90;;;;;;5070816;28;20185;-79
2022/03/20 04:02:22;;;;;;;13.20;8.50;;;1.40;99.90;;;;;;5071283;28;20662;-78
2022/03/20 04:04:48;;;;;;;15.37;8.67;;;1.40;99.90;;;;;;5079780;28;20205;-83
2022/03/20 04:07:17;;;;;;;13.43;8.40;;;1.40;99.90;;;;;;5070717;28;20212;-81
2022/03/20 04:09:43;;;;;;;14.67;9.03;;;1.40;99.90;;;;;;5070919;28;20219;-77
2022/03/20 04:12:09;;;;;;;14.83;8.53;;;1.40;99.90;;;;;;5081265;28;20220;-79
2022/03/20 04:14:35;;;;;;;14.13;9.43;;;1.40;99.90;;;;;;5070862;28;20211;-80
2022/03/20 04:17:03;;;;;;;13.37;9.03;;;1.40;99.90;;;;;;5070574;28;20181;-80
2022/03/20 04:19:29;;;;;;;14.80;9.03;;;1.40;99.90;;;;;;5079842;28;20643;-79
2022/03/20 04:21:54;;;;;;;12.87;8.77;;;1.40;99.90;;;;;;5069317;28;20262;-78
2022/03/20 04:24:20;;;;;;;14.63;8.93;;;1.40;99.90;;;;;;5069768;28;20209;-79
2022/03/20 04:26:46;;;;;;;17.40;9.67;;;1.30;99.90;;;;;;5081056;28;20720;-78
2022/03/20 04:29:12;;;;;;;12.27;8.17;;;1.40;99.90;;;;;;5069924;28;20174;-80
2022/03/20 04:31:37;;;;;;;14.17;8.40;;;1.40;99.90;;;;;;5069108;28;20189;-81
2022/03/20 04:34:04;;;;;;;15.77;9.47;;;1.30;99.90;;;;;;5070364;28;20201;-79
2022/03/20 04:36:30;;;;;;;14.97;9.13;;;1.30;99.90;;;;;;5081366;28;20177;-80
2022/03/20 04:38:58;;;;;;;12.90;8.60;;;1.30;99.90;;;;;;5070505;28;20193;-77
2022/03/20 04:41:25;;;;;;;15.63;9.67;;;1.20;99.90;;;;;;5070326;28;20754;-80
2022/03/20 04:43:50;;;;;;;18.30;9.53;;;1.20;99.90;;;;;;5070358;28;20251;-81
2022/03/20 04:46:18;;;;;;;16.33;8.70;;;1.20;99.90;;;;;;5071281;28;20186;-81
2022/03/20 04:59:40;;;;;;;13.67;9.20;;;1.20;99.90;;;;;;5078981;28;20612;-76
2022/03/20 05:02:06;;;;;;;14.03;8.50;;;1.20;99.90;;;;;;5067653;28;20203;-79
2022/03/20 05:04:32;;;;;;;14.63;9.13;;;1.10;99.90;;;;;;5068809;28;20201;-82
2022/03/20 05:06:58;;;;;;;14.30;8.73;;;1.20;99.90;;;;;;5080712;28;20181;-81
2022/03/20 05:14:56;;;;;;;12.10;8.33;;;1.10;99.90;;;;;;5079444;28;20180;-78
2022/03/20 05:17:22;;;;;;;15.43;9.63;;;1.10;99.90;;;;;;5066878;28;20212;-77
2022/03/20 05:19:48;;;;;;;13.53;8.60;;;1.10;99.90;;;;;;5066788;28;20209;-79
2022/03/20 05:22:13;;;;;;;15.47;9.50;;;1.10;99.90;;;;;;5076599;28;20268;-80
2022/03/20 05:24:40;;;;;;;14.87;9.23;;;1.10;99.90;;;;;;5065395;28;20231;-80
2022/03/20 05:27:07;;;;;;;13.13;8.77;;;1.10;99.90;;;;;;5066249;28;20205;-79
2022/03/20 05:29:33;;;;;;;14.33;9.07;;;1.00;99.90;;;;;;5065965;28;20209;-78
2022/03/20 05:32:02;;;;;;;13.67;8.73;;;1.10;99.90;;;;;;5077606;28;20268;-82
2022/03/20 05:34:28;;;;;;;13.03;8.67;;;1.20;99.90;;;;;;5065829;28;20319;-77
2022/03/20 05:36:56;;;;;;;13.73;8.77;;;1.20;99.90;;;;;;5077416;28;20268;-79
2022/03/20 05:39:22;;;;;;;16.77;9.17;;;1.00;99.90;;;;;;5080126;28;20321;-79
2022/03/20 05:41:48;;;;;;;13.47;9.10;;;1.10;99.90;;;;;;5069657;28;20227;-76
2022/03/20 05:44:15;;;;;;;17.03;9.60;;;1.10;99.90;;;;;;5068938;28;20253;-80
2022/03/20 05:46:42;;;;;;;16.20;9.37;;;1.10;99.90;;;;;;5078194;28;20666;-80
2022/03/20 05:49:08;;;;;;;14.07;9.37;;;1.20;99.90;;;;;;5079223;28;20315;-79
2022/03/20 05:51:37;;;;;;;14.57;8.90;;;1.20;99.90;;;;;;5068207;28;20684;-81
2022/03/20 05:54:04;;;;;;;16.90;9.43;;;1.20;99.90;;;;;;5069750;28;20232;-80
2022/03/20 05:59:14;;;;;;;13.10;9.13;;;1.30;99.90;;;;;;5078431;28;20603;-82
2022/03/20 06:01:39;;;;;;;15.27;9.20;;;1.40;99.90;;;;;;5067098;28;20181;-79
2022/03/20 06:04:06;;;;;;;17.47;10.33;;;1.40;99.90;;;;;;5078859;28;20212;-77
2022/03/20 06:06:33;;;;;;;14.33;9.63;;;1.40;99.90;;;;;;5068993;28;20319;-82
2022/03/20 06:08:58;;;;;;;13.70;9.20;;;1.50;99.90;;;;;;5086552;28;20205;-78
2022/03/20 06:11:24;;;;;;;16.27;9.40;;;1.50;99.90;;;;;;5081916;28;20191;-81
2022/03/20 06:13:50;;;;;;;14.77;9.20;;;1.50;99.90;;;;;;5092382;28;20262;-80
2022/03/20 06:16:17;;;;;;;15.80;9.30;;;1.50;99.90;;;;;;5076175;28;20207;-83
2022/03/20 06:18:43;;;;;;;15.17;9.47;;;1.60;99.90;;;;;;5080142;28;20185;-79
2022/03/20 06:21:10;;;;;;;15.50;9.00;;;1.60;99.90;;;;;;5088106;28;20639;-80
2022/03/20 06:23:36;;;;;;;16.90;10.47;;;1.60;99.90;;;;;;5080459;28;20216;-82
2022/03/20 06:26:01;;;;;;;15.57;9.33;;;1.70;99.90;;;;;;5072699;28;20302;-82
2022/03/20 06:28:30;;;;;;;14.73;9.13;;;1.70;99.90;;;;;;5076669;28;20225;-79
2022/03/20 06:30:56;;;;;;;18.00;9.70;;;1.70;99.90;;;;;;5078095;28;20181;-79
2022/03/20 06:33:25;;;;;;;14.27;8.97;;;1.70;99.90;;;;;;5075566;28;20222;-80
2022/03/20 06:35:52;;;;;;;16.33;10.00;;;1.80;99.90;;;;;;5081504;28;20210;-81
2022/03/20 06:38:18;;;;;;;15.00;10.00;;;1.90;99.90;;;;;;5077298;28;20189;-80
2022/03/20 06:40:44;;;;;;;13.90;9.13;;;1.90;99.90;;;;;;5086112;28;20242;-81
2022/03/20 06:43:09;;;;;;;14.73;10.23;;;2.00;99.90;;;;;;5090110;28;20631;-78
2022/03/20 06:45:36;;;;;;;16.30;9.77;;;2.20;99.90;;;;;;5074595;28;20203;-80
2022/03/20 06:48:02;;;;;;;15.73;9.40;;;2.30;99.90;;;;;;5080986;28;20243;-79
2022/03/20 06:50:28;;;;;;;13.97;9.13;;;2.40;99.90;;;;;;5088748;28;20189;-81
2022/03/20 06:52:54;;;;;;;15.27;9.77;;;2.40;99.90;;;;;;5073972;28;20224;-79
2022/03/20 06:55:19;;;;;;;14.63;9.73;;;2.50;99.90;;;;;;5072789;28;20192;-80
2022/03/20 06:57:46;;;;;;;16.70;10.30;;;2.60;99.90;;;;;;5071551;28;20278;-79
2022/03/20 07:00:14;;;;;;;20.63;10.40;;;2.60;99.90;;;;;;5074245;28;20197;-81
2022/03/20 07:02:39;;;;;;;16.03;10.03;;;2.60;99.90;;;;;;5077122;28;20217;-81
2022/03/20 07:05:06;;;;;;;16.33;10.27;;;2.70;99.90;;;;;;5078704;28;20243;-80
2022/03/20 07:07:34;;;;;;;16.93;10.50;;;2.80;99.90;;;;;;5076690;28;20209;-81
2022/03/20 07:09:59;;;;;;;17.17;10.13;;;2.90;99.90;;;;;;5074842;28;20188;-80
2022/03/20 07:12:25;;;;;;;17.77;10.40;;;3.00;99.90;;;;;;5086750;28;20177;-78
2022/03/20 07:14:53;;;;;;;18.00;10.57;;;3.00;99.90;;;;;;5075892;28;20559;-80
2022/03/20 07:17:19;;;;;;;13.97;9.23;;;3.10;99.90;;;;;;5074842;28;20689;-81
2022/03/20 07:19:45;;;;;;;14.97;10.30;;;3.10;99.90;;;;;;5078290;28;20203;-80
2022/03/20 07:22:14;;;;;;;15.60;10.90;;;3.20;99.90;;;;;;5073705;28;20196;-78
2022/03/20 07:24:42;;;;;;;17.03;10.60;;;3.30;99.90;;;;;;5066448;28;20213;-79
2022/03/20 07:29:56;;;;;;;17.00;10.67;;;3.50;99.90;;;;;;5049437;28;20190;-79
2022/03/20 07:32:22;;;;;;;17.77;10.40;;;3.60;99.90;;;;;;5065028;28;20190;-81
2022/03/20 07:34:48;;;;;;;16.33;10.10;;;3.70;99.90;;;;;;5065611;28;20262;-81
2022/03/20 07:37:16;;;;;;;15.13;10.20;;;3.80;99.90;;;;;;5078129;28;20186;-81
2022/03/20 07:39:44;;;;;;;17.77;10.53;;;4.00;99.90;;;;;;5066116;28;20181;-82
2022/03/20 07:42:10;;;;;;;20.60;10.77;;;4.10;99.90;;;;;;5065940;28;20181;-79
2022/03/20 07:44:36;;;;;;;16.67;10.23;;;4.20;99.90;;;;;;5060856;28;20213;-79
2022/03/20 07:47:03;;;;;;;17.23;11.37;;;4.30;99.90;;;;;;5060104;28;20177;-80
2022/03/20 07:49:30;;;;;;;14.60;10.30;;;4.40;99.90;;;;;;5078290;28;20182;-81
2022/03/20 07:51:57;;;;;;;16.73;10.90;;;4.50;99.90;;;;;;5071791;28;20231;-79
2022/03/20 07:54:24;;;;;;;17.67;10.67;;;4.70;99.90;;;;;;5070482;28;20197;-78
2022/03/20 07:56:50;;;;;;;17.93;10.57;;;4.70;99.90;;;;;;5069083;28;20526;-80
2022/03/20 07:59:16;;;;;;;17.80;10.73;;;4.70;99.90;;;;;;5071011;28;20177;-81
2022/03/20 08:01:43;;;;;;;16.30;10.43;;;4.80;99.90;;;;;;5080448;28;20169;-79
2022/03/20 08:04:08;;;;;;;18.47;11.50;;;4.80;99.90;;;;;;5080899;28;20201;-80
2022/03/20 08:06:34;;;;;;;20.13;11.33;;;4.80;99.90;;;;;;5080033;28;20174;-77
2022/03/20 08:08:59;;;;;;;17.67;10.77;;;4.80;99.90;;;;;;5068454;28;20205;-81
2022/03/20 08:11:29;;;;;;;18.20;10.63;;;4.90;99.90;;;;;;5066587;28;20272;-81
2022/03/20 08:13:56;;;;;;;17.80;11.03;;;5.00;99.90;;;;;;5078509;28;20292;-79
2022/03/20 08:16:22;;;;;;;17.17;10.57;;;5.10;99.90;;;;;;5068969;28;20341;-79
2022/03/20 08:18:48;;;;;;;19.17;11.07;;;5.10;99.90;;;;;;5080436;28;20675;-80
2022/03/20 08:21:14;;;;;;;16.30;10.37;;;5.30;99.90;;;;;;5079294;28;20189;-81
2022/03/20 08:23:40;;;;;;;17.47;11.00;;;5.40;99.90;;;;;;5068720;28;20209;-78
2022/03/20 08:26:08;;;;;;;17.20;10.90;;;5.50;99.90;;;;;;5067113;28;20205;-80
2022/03/20 08:28:37;;;;;;;19.53;11.50;;;5.60;99.90;;;;;;5075847;28;20675;-82
2022/03/20 08:31:03;;;;;;;18.07;10.87;;;5.80;99.90;;;;;;5077400;28;20185;-80
2022/03/20 08:33:30;;;;;;;16.20;11.00;;;5.90;99.90;;;;;;5083359;28;20322;-79
2022/03/20 08:35:56;;;;;;;16.13;10.43;;;5.90;99.90;;;;;;5080815;28;20185;-80
2022/03/20 08:38:22;;;;;;;17.93;11.20;;;5.90;99.90;;;;;;5092799;28;20182;-78
2022/03/20 08:40:50;;;;;;;17.87;10.67;;;6.00;99.90;;;;;;5080563;28;20253;-78
2022/03/20 08:43:21;;;;;;;17.83;11.43;;;6.10;99.90;;;;;;5085826;28;20251;-81
2022/03/20 08:45:49;;;;;;;18.13;11.10;;;6.20;99.90;;;;;;5080045;28;20228;-83
2022/03/20 08:48:15;;;;;;;16.30;10.67;;;6.30;99.90;;;;;;5081357;28;20217;-81
2022/03/20 08:50:44;;;;;;;17.33;10.50;;;6.40;99.90;;;;;;5079445;28;20215;-83
2022/03/20 08:53:10;;;;;;;17.17;10.67;;;6.40;99.90;;;;;;5079340;28;20196;-83
2022/03/20 08:55:36;;;;;;;19.93;11.87;;;6.50;99.90;;;;;;5079935;28;20185;-80
2022/03/20 08:58:04;;;;;;;16.13;10.63;;;6.60;99.90;;;;;;5093251;28;20188;-81
2022/03/20 09:00:33;;;;;;;17.50;11.03;;;6.70;99.90;;;;;;5080913;28;20181;-81
2022/03/20 09:02:58;;;;;;;17.97;11.40;;;6.90;99.90;;;;;;5082451;28;20200;-80
2022/03/20 09:05:24;;;;;;;13.90;9.80;;;7.00;99.70;;;;;;5080189;28;20196;-80
2022/03/20 09:07:50;;;;;;;16.83;10.83;;;7.10;99.90;;;;;;5080206;28;20231;-81
2022/03/20 09:10:17;;;;;;;16.80;11.07;;;7.30;98.90;;;;;;5080558;28;20181;-82
2022/03/20 09:12:43;;;;;;;20.83;10.43;;;7.40;99.30;;;;;;5077348;28;20725;-80
2022/03/20 09:15:12;;;;;;;15.70;9.97;;;7.40;96.70;;;;;;5080180;28;20185;-80
2022/03/20 09:20:32;;;;;;;15.07;11.03;;;7.60;96.60;;;;;;5090676;28;20188;-80
2022/03/20 09:22:57;;;;;;;17.00;10.93;;;7.70;98.40;;;;;;5070537;28;20221;-80
2022/03/20 09:25:24;;;;;;;15.60;10.50;;;7.80;96.70;;;;;;5066825;28;20209;-79
2022/03/20 09:27:51;;;;;;;16.57;10.33;;;7.80;96.70;;;;;;5077787;28;20220;-80
2022/03/20 09:30:17;;;;;;;16.03;10.53;;;7.90;95.50;;;;;;5065205;28;20200;-80
2022/03/20 09:32:44;;;;;;;15.10;10.53;;;8.00;95.90;;;;;;5064518;28;20209;-79
2022/03/20 09:35:11;;;;;;;15.97;10.60;;;8.20;96.20;;;;;;5065885;28;20193;-81
2022/03/20 09:37:37;;;;;;;15.60;10.93;;;8.40;95.50;;;;;;5074221;28;20685;-77
2022/03/20 09:40:04;;;;;;;13.80;9.93;;;8.50;94.40;;;;;;5077971;28;20185;-79
2022/03/20 09:42:30;;;;;;;14.43;10.10;;;8.70;94.20;;;;;;5066646;28;20241;-79
2022/03/20 09:44:56;;;;;;;14.20;10.00;;;8.80;92.60;;;;;;5073592;28;20189;-79
2022/03/20 09:47:23;;;;;;;14.23;9.87;;;8.70;91.80;;;;;;5068534;28;20788;-79
2022/03/20 09:49:56;;;;;;;15.93;10.20;;;8.70;91.80;;;;;;5078588;28;20498;-77
2022/03/20 09:52:25;;;;;;;15.70;9.80;;;8.80;90.00;;;;;;5091200;28;20193;-78
2022/03/20 09:54:53;;;;;;;13.73;9.80;;;8.80;88.70;;;;;;5074926;28;20219;-79
2022/03/20 09:57:18;;;;;;;14.33;9.80;;;8.90;89.10;;;;;;5081306;28;20197;-79
2022/03/20 09:59:44;;;;;;;16.17;10.17;;;9.00;87.70;;;;;;5064629;28;20177;-79
2022/03/20 10:02:11;;;;;;;13.63;9.47;;;9.00;86.60;;;;;;5067230;28;20189;-80
2022/03/20 10:04:54;;;;;;;14.10;9.33;;;9.20;90.70;;;;;;5059364;28;20209;-80
2022/03/20 10:07:25;;;;;;;12.27;9.27;;;9.40;89.40;;;;;;5060335;28;20217;-80
2022/03/20 10:10:10;;;;;;;14.10;10.13;;;9.40;87.50;;;;;;5058554;28;20217;-82
2022/03/20 10:12:38;;;;;;;14.63;9.73;;;9.40;88.20;;;;;;5062069;28;20195;-81
2022/03/20 10:15:09;;;;;;;13.63;9.57;;;9.40;85.00;;;;;;5063768;28;20188;-79
2022/03/20 10:17:35;;;;;;;13.50;8.97;;;9.40;83.60;;;;;;5072037;28;20244;-80
2022/03/20 10:20:16;;;;;;;12.67;8.53;;;9.60;84.80;;;;;;5068168;28;20675;-84
2022/03/20 10:22:42;;;;;;;12.97;10.17;;;9.70;82.00;;;;;;5060022;28;20204;-81
2022/03/20 10:25:11;;;;;;;13.60;9.47;;;9.70;82.80;;;;;;5059251;28;20567;-81
2022/03/20 10:27:37;;;;;;;11.60;9.20;;;9.90;85.00;;;;;;5068109;28;20208;-82
2022/03/20 10:30:08;;;;;;;14.23;10.23;;;10.10;85.00;;;;;;5073740;28;20188;-79
2022/03/20 10:32:34;;;;;;;15.20;9.17;;;10.20;82.40;;;;;;5070029;28;20192;-82
2022/03/20 10:35:01;;;;;;;12.07;8.63;;;10.20;81.40;;;;;;5066247;28;20585;-80
2022/03/20 10:37:46;;;;;;;12.23;8.90;;;10.20;79.10;;;;;;5072334;28;20668;-79
2022/03/20 10:40:14;;;;;;;14.87;9.23;;;10.30;79.70;;;;;;5072183;28;20336;-81
2022/03/20 10:42:41;;;;;;;12.67;8.57;;;10.60;80.00;;;;;;5055824;28;21195;-83
2022/03/20 10:45:08;;;;;;;10.57;7.80;;;10.70;76.70;;;;;;5073194;28;20189;-79
2022/03/20 10:47:34;;;;;;;12.50;8.77;;;10.70;72.10;;;;;;5059783;28;20294;-80
2022/03/20 10:50:05;;;;;;;11.63;8.10;;;10.80;73.30;;;;;;5062813;28;20577;-81
2022/03/20 10:52:32;;;;;;;14.17;8.33;;;10.80;72.90;;;;;;5068977;28;20594;-80
2022/03/20 10:54:58;;;;;;;12.33;8.30;;;11.00;74.20;;;;;;5058060;28;21349;-78
2022/03/20 10:57:34;;;;;;;11.40;8.03;;;11.00;69.30;;;;;;5059410;28;20188;-82
2022/03/20 11:00:03;;;;;;;11.20;8.03;;;11.00;68.50;;;;;;5059765;28;20610;-77
2022/03/20 11:02:29;;;;;;;10.83;8.13;;;11.00;68.90;;;;;;5060958;28;20187;-80
2022/03/20 11:04:54;;;;;;;9.57;7.77;;;11.10;67.40;;;;;;5059078;28;20193;-81
2022/03/20 11:07:21;;;;;;;12.30;8.30;;;11.00;66.70;;;;;;5055732;28;20212;-79
2022/03/20 11:09:49;;;;;;;10.63;8.00;;;11.00;68.70;;;;;;5069090;28;20533;-79
2022/03/20 11:12:22;;;;;;;10.60;7.97;;;11.20;67.20;;;;;;5061938;28;20224;-81
2022/03/20 11:14:48;;;;;;;12.47;8.53;;;11.30;68.00;;;;;;5069473;28;20647;-79
2022/03/20 11:17:17;;;;;;;9.40;7.73;;;11.30;68.70;;;;;;5063631;28;20204;-82
2022/03/20 11:19:49;;;;;;;10.40;8.00;;;11.40;66.30;;;;;;5063012;28;20192;-80
2022/03/20 11:22:18;;;;;;;11.97;7.83;;;11.40;65.80;;;;;;5063294;28;20192;-80
2022/03/20 11:24:47;;;;;;;15.00;7.03;;;11.20;64.60;;;;;;5078661;28;20228;-81
2022/03/20 11:27:17;;;;;;;9.90;7.33;;;11.30;65.40;;;;;;5071852;28;20194;-82
2022/03/20 11:30:07;;;;;;;9.43;7.10;;;11.30;64.90;;;;;;5077970;28;20899;-80
2022/03/20 11:32:33;;;;;;;9.33;7.37;;;11.40;64.40;;;;;;5069236;28;20501;-80
2022/03/20 11:35:00;;;;;;;11.37;7.70;;;11.50;65.60;;;;;;5071701;28;20185;-78
2022/03/20 11:37:46;;;;;;;11.57;8.03;;;11.50;64.00;;;;;;5084581;28;20194;-78
2022/03/20 11:40:17;;;;;;;11.37;7.93;;;11.60;65.90;;;;;;5075064;28;20469;-78
2022/03/20 11:42:43;;;;;;;13.00;7.47;;;11.80;66.70;;;;;;5082417;28;20229;-79
2022/03/20 11:45:18;;;;;;;10.87;7.03;;;11.70;61.70;;;;;;5085827;28;20205;-79
2022/03/20 11:47:49;;;;;;;10.63;7.23;;;11.70;62.80;;;;;;5085579;28;20245;-80
2022/03/20 11:50:23;;;;;;;11.23;7.73;;;11.80;62.60;;;;;;5075074;28;20217;-79
2022/03/20 11:53:04;;;;;;;9.63;7.23;;;11.90;63.90;;;;;;5072897;28;20247;-80
2022/03/20 11:55:41;;;;;;;9.27;7.17;;;11.80;60.10;;;;;;5082700;28;20184;-80
2022/03/20 11:58:16;;;;;;;9.57;7.07;;;11.80;60.90;;;;;;5073735;28;20181;-80
2022/03/20 12:00:44;;;;;;;9.13;7.27;;;11.80;60.20;;;;;;5076466;28;20237;-80
2022/03/20 12:03:13;;;;;;;12.53;7.40;;;11.80;60.30;;;;;;5074260;28;20635;-79
2022/03/20 12:05:41;;;;;;;9.20;6.80;;;11.90;60.50;;;;;;5071114;28;20196;-79
2022/03/20 12:08:19;;;;;;;10.95;6.57;;;12.00;62.20;;;;;;5085474;28;20617;-82
2022/03/20 12:11:19;;;;;;;9.07;7.00;;;12.10;60.40;;;;;;5085452;28;20204;-79
2022/03/20 12:14:17;;;;;;;10.27;7.33;;;12.00;58.30;;;;;;5085472;28;20206;-79
2022/03/20 12:16:50;;;;;;;10.43;7.20;;;12.00;60.60;;;;;;5075373;28;20197;-81
2022/03/20 12:19:20;;;;;;;8.68;6.80;;;12.00;60.20;;;;;;5089547;28;20207;-81
2022/03/20 12:22:02;;;;;;;9.68;7.10;;;11.90;59.00;;;;;;5090962;28;20268;-82
2022/03/20 12:24:37;;;;;;;9.65;7.28;;;11.90;58.60;;;;;;5089196;28;20212;-81
2022/03/20 12:27:24;;;;;;;12.03;6.80;;;12.00;59.50;;;;;;5089389;28;20185;-80
2022/03/20 12:29:50;;;;;;;9.45;6.55;;;11.90;59.20;;;;;;5089494;28;20178;-81
2022/03/20 12:32:17;;;;;;;8.67;6.40;;;12.00;58.60;;;;;;5089320;28;20177;-81
2022/03/20 12:34:56;;;;;;;10.53;6.93;;;12.00;58.30;;;;;;5078940;28;20219;-81
2022/03/20 12:37:30;;;;;;;8.90;7.60;;;11.90;58.50;;;;;;5088862;28;20196;-81
2022/03/20 12:40:06;;;;;;;10.70;7.40;;;12.00;59.80;;;;;;5081609;28;20188;-80
2022/03/20 12:42:33;;;;;;;8.03;6.37;;;12.00;59.70;;;;;;5089951;28;20193;-81
2022/03/20 12:45:00;;;;;;;11.63;7.30;;;12.00;59.20;;;;;;5078701;28;20185;-80
2022/03/20 12:47:27;;;;;;;9.32;7.03;;;12.00;60.00;;;;;;5090086;28;20216;-81
2022/03/20 12:50:06;;;;;;;11.33;6.80;;;12.10;59.10;;;;;;5079139;28;20501;-81
2022/03/20 12:52:33;;;;;;;10.82;6.90;;;12.20;59.90;;;;;;5076687;28;20191;-81
2022/03/20 12:55:03;;;;;;;8.87;6.30;;;12.30;58.30;;;;;;5074331;28;20177;-80
2022/03/20 12:57:43;;;;;;;8.23;6.78;;;12.40;58.60;;;;;;5071327;28;20269;-79
2022/03/20 13:00:10;;;;;;;8.15;6.35;;;12.60;59.70;;;;;;5082841;28;20192;-80
2022/03/20 13:02:54;;;;;;;8.00;5.95;;;12.40;57.00;;;;;;5074539;28;20748;-79
2022/03/20 13:05:20;;;;;;;7.70;6.10;;;12.40;57.40;;;;;;5083056;28;20199;-79
2022/03/20 13:07:45;;;;;;;8.13;6.00;;;12.50;57.80;;;;;;5081514;28;20208;-77
2022/03/20 13:10:13;;;;;;;10.13;6.37;;;12.40;57.10;;;;;;5066671;28;20210;-82
2022/03/20 13:13:01;;;;;;;7.47;6.67;;;12.50;57.00;;;;;;5067103;28;20177;-81
2022/03/20 13:15:30;;;;;;;9.53;6.53;;;12.40;56.60;;;;;;5070590;28;20634;-80
2022/03/20 13:17:56;;;;;;;13.90;6.30;;;12.40;56.10;;;;;;5071697;28;20193;-78
2022/03/20 13:20:25;;;;;;;11.35;6.93;;;12.30;58.00;;;;;;5073402;28;20205;-81
2022/03/20 13:22:52;;;;;;;8.35;6.80;;;12.60;58.30;;;;;;5071046;28;20288;-81